Time;durP1;ratioP1;P1;durP2;ratioP2;P2;SDS_P1;SDS_P2;PMS_P1;PMS_P2;Temp;Humidity;BMP_temperature;BMP_pressure;BME280_temperature;BME280_humidity;BME280_pressure;Samples;Min_cycle;Max_cycle;Signal;HPM_P1;HPM_P2
2021/10/30 00:01:46;;;;;;;2.85;1.10;;;;;20.50;100769.00;;;;5088671;28;20048;-76
2021/10/30 00:04:16;;;;;;;2.47;1.00;;;;;20.40;100761.00;;;;5089114;28;20044;-75
2021/10/30 00:06:45;;;;;;;8.30;0.98;;;;;20.40;100767.00;;;;5088772;28;20051;-77
2021/10/30 00:09:14;;;;;;;4.85;1.17;;;;;20.30;100765.00;;;;5089432;28;20048;-76
2021/10/30 00:11:47;;;;;;;10.55;1.20;;;;;20.40;100783.00;;;;5088764;28;20054;-80
2021/10/30 00:14:17;;;;;;;7.88;1.38;;;;;20.40;100785.00;;;;5088919;28;20109;-78
2021/10/30 00:16:47;;;;;;;3.60;1.13;;;;;20.40;100797.00;;;;5088821;28;20047;-77
2021/10/30 00:19:17;;;;;;;6.80;1.13;;;;;20.30;100792.00;;;;5088648;28;20067;-77
2021/10/30 00:21:48;;;;;;;7.18;1.20;;;;;20.40;100800.00;;;;5088638;28;20089;-77
2021/10/30 00:24:18;;;;;;;2.97;1.15;;;;;20.30;100796.00;;;;5088425;28;20125;-76
2021/10/30 00:26:48;;;;;;;14.05;1.70;;;;;20.30;100786.00;;;;5088361;28;20050;-77
2021/10/30 00:29:18;;;;;;;15.07;1.60;;;;;20.30;100765.00;;;;5070465;28;20058;-78
2021/10/30 00:31:47;;;;;;;6.60;1.48;;;;;20.20;100786.00;;;;5088637;28;20064;-77
2021/10/30 00:34:17;;;;;;;5.85;1.63;;;;;20.10;100774.00;;;;5089409;28;20774;-78
2021/10/30 00:36:46;;;;;;;13.77;1.80;;;;;20.10;100784.00;;;;5090433;28;20047;-77
2021/10/30 00:39:16;;;;;;;20.63;2.05;;;;;20.10;100786.00;;;;5091283;28;20093;-77
2021/10/30 00:41:47;;;;;;;9.90;1.80;;;;;20.10;100786.00;;;;5088405;28;20052;-78
2021/10/30 00:44:18;;;;;;;8.15;1.80;;;;;20.10;100791.00;;;;5088240;28;20040;-77
2021/10/30 00:46:50;;;;;;;10.33;1.83;;;;;20.10;100787.00;;;;5088143;28;20052;-77
2021/10/30 00:49:24;;;;;;;4.30;1.88;;;;;20.10;100788.00;;;;5087833;28;20044;-77
2021/10/30 00:51:56;;;;;;;8.80;2.22;;;;;20.00;100785.00;;;;5088159;28;20036;-77
2021/10/30 00:54:27;;;;;;;8.38;2.83;;;;;19.90;100781.00;;;;5088048;28;20040;-77
2021/10/30 00:56:57;;;;;;;8.55;1.90;;;;;19.90;100787.00;;;;5087643;28;20097;-76
2021/10/30 00:59:26;;;;;;;11.60;1.63;;;;;19.80;100788.00;;;;5087518;28;20047;-77
2021/10/30 01:01:56;;;;;;;6.53;2.00;;;;;19.90;100795.00;;;;5068833;28;20074;-77
2021/10/30 01:04:26;;;;;;;11.93;1.80;;;;;20.00;100785.00;;;;5069432;28;20055;-79
2021/10/30 01:06:57;;;;;;;7.28;2.10;;;;;20.00;100783.00;;;;5086956;28;20162;-78
2021/10/30 01:09:26;;;;;;;5.82;1.83;;;;;19.80;100782.00;;;;5086642;28;20524;-78
2021/10/30 01:11:56;;;;;;;5.38;2.10;;;;;19.80;100777.00;;;;5087816;28;20040;-78
2021/10/30 01:14:26;;;;;;;3.38;1.90;;;;;19.70;100776.00;;;;5087535;28;20044;-78
2021/10/30 01:17:03;;;;;;;8.82;1.88;;;;;19.90;100784.00;;;;5087719;28;20059;-78
2021/10/30 01:19:34;;;;;;;3.50;1.88;;;;;20.10;100789.00;;;;5069481;28;20105;-78
2021/10/30 01:22:05;;;;;;;6.30;1.92;;;;;20.00;100782.00;;;;5069869;28;20884;-78
2021/10/30 01:24:34;;;;;;;11.07;2.95;;;;;19.80;100795.00;;;;5087555;28;20415;-78
2021/10/30 01:27:04;;;;;;;5.25;2.50;;;;;19.80;100782.00;;;;5086984;28;20055;-78
2021/10/30 01:29:34;;;;;;;6.68;2.53;;;;;19.70;100794.00;;;;5087345;28;20076;-77
2021/10/30 01:32:04;;;;;;;4.32;2.17;;;;;19.80;100798.00;;;;5087370;28;20036;-78
2021/10/30 01:34:35;;;;;;;4.07;2.20;;;;;19.70;100797.00;;;;5088028;28;20055;-78
2021/10/30 01:37:05;;;;;;;4.00;2.10;;;;;19.60;100794.00;;;;5087271;28;20055;-78
2021/10/30 01:39:35;;;;;;;4.80;2.10;;;;;19.50;100801.00;;;;5087261;28;20457;-77
2021/10/30 01:42:04;;;;;;;5.95;2.22;;;;;19.40;100804.00;;;;5087393;28;20079;-77
2021/10/30 01:44:34;;;;;;;4.15;2.50;;;;;19.40;100793.00;;;;5087604;28;20085;-78
2021/10/30 01:47:04;;;;;;;3.23;2.10;;;;;19.30;100812.00;;;;5088352;28;20048;-77
2021/10/30 01:49:34;;;;;;;9.65;2.15;;;;;19.20;100801.00;;;;5087205;28;20094;-77
2021/10/30 01:52:03;;;;;;;6.13;2.63;;;;;19.10;100796.00;;;;5087558;28;20044;-77
2021/10/30 01:54:33;;;;;;;3.97;2.17;;;;;19.00;100806.00;;;;5086831;28;20040;-77
2021/10/30 01:57:03;;;;;;;3.88;2.30;;;;;18.90;100804.00;;;;5087151;28;20040;-77
2021/10/30 01:59:32;;;;;;;7.00;2.35;;;;;18.80;100799.00;;;;5086738;28;20102;-78
2021/10/30 02:02:02;;;;;;;5.47;2.00;;;;;18.80;100789.00;;;;5085901;28;20056;-78
2021/10/30 02:04:32;;;;;;;12.00;2.30;;;;;18.80;100787.00;;;;5086655;28;20127;-77
2021/10/30 02:07:01;;;;;;;4.95;2.50;;;;;18.70;100788.00;;;;5087110;28;20651;-76
2021/10/30 02:09:32;;;;;;;6.65;2.20;;;;;18.80;100769.00;;;;5087399;28;20047;-77
2021/10/30 02:12:01;;;;;;;5.38;2.45;;;;;18.80;100770.00;;;;5087097;28;20105;-77
2021/10/30 02:14:31;;;;;;;2.70;2.22;;;;;18.80;100774.00;;;;5086941;28;20038;-77
2021/10/30 02:17:01;;;;;;;7.32;2.55;;;;;18.80;100769.00;;;;5087149;28;20048;-78
2021/10/30 02:19:31;;;;;;;3.47;2.58;;;;;18.70;100767.00;;;;5086591;28;20414;-77
2021/10/30 02:22:01;;;;;;;6.00;2.70;;;;;18.70;100773.00;;;;5069049;28;20040;-76
2021/10/30 02:24:31;;;;;;;9.77;2.72;;;;;18.60;100768.00;;;;5086788;28;20048;-77
2021/10/30 02:27:00;;;;;;;15.27;3.60;;;;;18.60;100769.00;;;;5086531;28;20055;-78
2021/10/30 02:29:30;;;;;;;6.57;2.85;;;;;18.50;100767.00;;;;5086913;28;20047;-77
2021/10/30 02:32:01;;;;;;;5.82;2.63;;;;;18.50;100768.00;;;;5086714;28;20048;-76
2021/10/30 02:34:31;;;;;;;5.63;2.90;;;;;18.40;100773.00;;;;5086842;28;20495;-76
2021/10/30 02:37:03;;;;;;;6.20;2.90;;;;;18.30;100747.00;;;;5087373;28;20096;-76
2021/10/30 02:39:32;;;;;;;3.80;2.72;;;;;18.20;100761.00;;;;5068961;28;20051;-79
2021/10/30 02:42:04;;;;;;;8.85;2.92;;;;;18.20;100756.00;;;;5086356;28;20090;-76
2021/10/30 02:44:34;;;;;;;6.53;3.13;;;;;18.10;100745.00;;;;5087123;28;20522;-78
2021/10/30 02:47:04;;;;;;;11.57;3.00;;;;;18.10;100741.00;;;;5086361;28;20048;-77
2021/10/30 02:49:34;;;;;;;7.33;3.47;;;;;18.10;100728.00;;;;5068566;28;20101;-78
2021/10/30 02:52:05;;;;;;;11.18;3.13;;;;;18.00;100740.00;;;;5086367;28;20426;-77
2021/10/30 02:54:35;;;;;;;18.38;4.00;;;;;18.10;100742.00;;;;5068527;28;20047;-79
2021/10/30 02:57:04;;;;;;;5.50;3.33;;;;;18.10;100738.00;;;;5086548;28;20487;-76
2021/10/30 02:59:33;;;;;;;8.60;3.47;;;;;18.10;100742.00;;;;5086891;28;20044;-76
2021/10/30 03:02:05;;;;;;;8.13;3.38;;;;;18.10;100733.00;;;;5086890;28;20109;-78
2021/10/30 03:04:34;;;;;;;8.30;3.13;;;;;18.00;100737.00;;;;5086470;28;20040;-77
2021/10/30 03:07:04;;;;;;;6.22;3.30;;;;;17.90;100725.00;;;;5086476;28;20079;-77
2021/10/30 03:09:34;;;;;;;6.53;3.45;;;;;17.90;100718.00;;;;5086369;28;20495;-77
2021/10/30 03:12:04;;;;;;;11.25;3.80;;;;;17.80;100722.00;;;;5086473;28;20048;-77
2021/10/30 03:14:33;;;;;;;5.70;4.05;;;;;17.80;100701.00;;;;5090536;28;20406;-77
2021/10/30 03:17:05;;;;;;;6.32;3.97;;;;;17.70;100711.00;;;;5089782;28;20093;-76
2021/10/30 03:19:35;;;;;;;7.97;4.20;;;;;17.80;100709.00;;;;5089540;28;20111;-77
2021/10/30 03:22:05;;;;;;;8.90;4.40;;;;;17.70;100685.00;;;;5072706;28;20047;-77
2021/10/30 03:24:35;;;;;;;9.93;4.00;;;;;17.70;100700.00;;;;5090757;28;20046;-76
2021/10/30 03:27:06;;;;;;;6.07;4.63;;;;;17.70;100697.00;;;;5090319;28;20460;-77
2021/10/30 03:29:35;;;;;;;8.00;4.60;;;;;17.70;100681.00;;;;5089638;28;20089;-77
2021/10/30 03:32:06;;;;;;;6.07;4.50;;;;;17.80;100678.00;;;;5090093;28;20529;-77
2021/10/30 03:34:35;;;;;;;6.05;4.38;;;;;17.80;100666.00;;;;5089606;28;20047;-77
2021/10/30 03:37:05;;;;;;;6.55;4.43;;;;;17.80;100669.00;;;;5089718;28;20048;-77
2021/10/30 03:39:36;;;;;;;7.93;4.45;;;;;17.80;100664.00;;;;5090398;28;20036;-77
2021/10/30 03:42:05;;;;;;;8.10;4.25;;;;;17.90;100658.00;;;;5089478;28;20051;-77
2021/10/30 03:44:35;;;;;;;5.97;4.30;;;;;17.90;100660.00;;;;5071887;28;20048;-77
2021/10/30 03:47:05;;;;;;;6.85;4.70;;;;;17.90;100637.00;;;;5089837;28;20068;-77
2021/10/30 03:49:35;;;;;;;6.10;4.38;;;;;17.90;100636.00;;;;5089951;28;20044;-77
2021/10/30 03:52:05;;;;;;;6.28;4.32;;;;;18.00;100640.00;;;;5089596;28;20040;-77
2021/10/30 03:54:34;;;;;;;7.63;4.07;;;;;18.00;100655.00;;;;5088748;28;20044;-76
2021/10/30 03:57:04;;;;;;;4.40;3.97;;;;;17.90;100624.00;;;;5071772;28;20047;-77
2021/10/30 03:59:34;;;;;;;5.40;4.57;;;;;18.10;100615.00;;;;5089179;28;20047;-77
2021/10/30 04:02:04;;;;;;;4.45;3.83;;;;;18.10;100620.00;;;;5090047;28;20051;-78
2021/10/30 04:04:35;;;;;;;5.00;4.32;;;;;18.00;100620.00;;;;5089274;28;20559;-77
2021/10/30 04:07:05;;;;;;;4.80;4.20;;;;;18.00;100614.00;;;;5089184;28;20051;-77
2021/10/30 04:09:34;;;;;;;8.60;4.70;;;;;18.00;100605.00;;;;5089190;28;20044;-77
2021/10/30 04:12:04;;;;;;;4.78;4.10;;;;;18.00;100606.00;;;;5088971;28;20047;-77
2021/10/30 04:14:34;;;;;;;7.32;4.20;;;;;17.90;100592.00;;;;5088650;28;20036;-77
2021/10/30 04:17:04;;;;;;;6.30;4.35;;;;;17.90;100588.00;;;;5089446;28;20040;-76
2021/10/30 04:19:34;;;;;;;5.18;4.63;;;;;17.80;100588.00;;;;5070596;28;20075;-77
2021/10/30 04:22:04;;;;;;;6.20;4.40;;;;;17.70;100594.00;;;;5088898;28;20052;-77
2021/10/30 04:24:33;;;;;;;5.80;4.93;;;;;17.80;100562.00;;;;5088712;28;20048;-77
2021/10/30 04:27:04;;;;;;;6.95;4.50;;;;;17.80;100577.00;;;;5070619;28;20056;-77
2021/10/30 04:29:33;;;;;;;5.00;4.50;;;;;17.70;100566.00;;;;5088856;28;20052;-77
2021/10/30 04:32:04;;;;;;;5.90;5.25;;;;;17.60;100566.00;;;;5088801;28;20059;-77
2021/10/30 04:34:44;;;;;;;6.20;5.43;;;;;17.60;100565.00;;;;5088656;28;20531;-78
2021/10/30 04:37:16;;;;;;;5.78;5.15;;;;;17.60;100565.00;;;;5088743;28;20040;-77
2021/10/30 04:39:49;;;;;;;5.55;5.05;;;;;17.60;100557.00;;;;5089193;28;20050;-77
2021/10/30 04:42:20;;;;;;;11.15;5.78;;;;;17.70;100550.00;;;;5070412;28;20052;-77
2021/10/30 04:44:50;;;;;;;7.00;6.00;;;;;17.70;100549.00;;;;5088458;28;20479;-78
2021/10/30 04:47:19;;;;;;;8.52;6.03;;;;;17.70;100554.00;;;;5088211;28;20706;-76
2021/10/30 04:49:49;;;;;;;8.05;5.88;;;;;17.70;100557.00;;;;5088505;28;20398;-77
2021/10/30 04:52:19;;;;;;;7.60;6.30;;;;;17.90;100560.00;;;;5089074;28;20058;-77
2021/10/30 04:54:49;;;;;;;10.13;6.30;;;;;18.20;100558.00;;;;5088271;28;20691;-77
2021/10/30 04:57:18;;;;;;;9.40;6.18;;;;;18.20;100563.00;;;;5087915;28;20051;-77
2021/10/30 04:59:48;;;;;;;8.82;5.85;;;;;18.20;100551.00;;;;5088496;28;20119;-77
2021/10/30 05:02:17;;;;;;;6.72;5.97;;;;;18.20;100564.00;;;;5088562;28;20487;-76
2021/10/30 05:04:47;;;;;;;6.70;5.82;;;;;18.20;100541.00;;;;5088203;28;20148;-77
2021/10/30 05:07:16;;;;;;;8.02;6.00;;;;;18.10;100547.00;;;;5088017;28;20048;-77
2021/10/30 05:09:46;;;;;;;7.13;6.13;;;;;18.10;100543.00;;;;5069502;28;20044;-76
2021/10/30 05:12:15;;;;;;;9.52;5.72;;;;;18.30;100540.00;;;;5088175;28;20427;-76
2021/10/30 05:14:44;;;;;;;7.20;5.95;;;;;18.20;100523.00;;;;5087716;28;20044;-76
2021/10/30 05:17:14;;;;;;;10.02;6.13;;;;;18.30;100518.00;;;;5088013;28;20090;-77
2021/10/30 05:19:43;;;;;;;6.75;5.78;;;;;18.30;100529.00;;;;5069656;28;20052;-76
2021/10/30 05:22:13;;;;;;;5.90;5.30;;;;;18.40;100521.00;;;;5087681;28;21251;-76
2021/10/30 05:24:43;;;;;;;5.80;5.13;;;;;18.60;100512.00;;;;5087720;28;20040;-77
2021/10/30 05:27:13;;;;;;;6.63;5.57;;;;;18.60;100534.00;;;;5070129;28;20523;-76
2021/10/30 05:29:42;;;;;;;11.07;5.10;;;;;18.80;100522.00;;;;5087880;28;20109;-76
2021/10/30 05:32:12;;;;;;;6.88;4.82;;;;;18.70;100519.00;;;;5088115;28;20415;-77
2021/10/30 05:35:02;;;;;;;5.53;4.30;;;;;18.70;100525.00;;;;5087518;28;20051;-76
2021/10/30 05:37:52;;;;;;;7.07;4.37;;;;;18.60;100534.00;;;;5045047;28;20055;-77
2021/10/30 05:40:21;;;;;;;6.20;4.60;;;;;18.90;100527.00;;;;5087875;28;20051;-77
2021/10/30 05:42:51;;;;;;;5.32;4.70;;;;;18.90;100527.00;;;;5086690;28;20040;-78
2021/10/30 05:45:21;;;;;;;4.65;3.70;;;;;18.80;100524.00;;;;5087488;28;20575;-77
2021/10/30 05:47:50;;;;;;;7.88;3.70;;;;;18.90;100522.00;;;;5087789;28;20040;-77
2021/10/30 05:50:19;;;;;;;4.63;3.67;;;;;19.00;100527.00;;;;5087240;28;20093;-76
2021/10/30 05:52:49;;;;;;;4.13;3.72;;;;;18.90;100554.00;;;;5087282;28;20119;-77
2021/10/30 05:55:18;;;;;;;4.50;3.78;;;;;18.90;100545.00;;;;5087055;28;20044;-76
2021/10/30 05:57:47;;;;;;;5.13;3.78;;;;;18.70;100553.00;;;;5087253;28;21163;-77
2021/10/30 06:00:17;;;;;;;9.35;3.70;;;;;18.70;100553.00;;;;5087727;28;20089;-77
2021/10/30 06:02:46;;;;;;;3.80;3.40;;;;;18.60;100579.00;;;;5087537;28;20048;-78
2021/10/30 06:05:16;;;;;;;5.22;3.75;;;;;18.60;100579.00;;;;5086854;28;20125;-77
2021/10/30 06:07:45;;;;;;;4.10;3.72;;;;;18.60;100571.00;;;;5087055;28;20048;-77
2021/10/30 06:10:15;;;;;;;4.72;3.08;;;;;18.50;100594.00;;;;5087040;28;20086;-77
2021/10/30 06:12:44;;;;;;;4.00;3.53;;;;;18.50;100565.00;;;;5087167;28;20044;-77
2021/10/30 06:15:13;;;;;;;6.60;3.70;;;;;18.50;100583.00;;;;5086627;28;20086;-77
2021/10/30 06:17:43;;;;;;;5.43;3.28;;;;;18.50;100572.00;;;;5086876;28;20043;-77
2021/10/30 06:20:13;;;;;;;5.50;3.47;;;;;18.20;100581.00;;;;5087280;28;20055;-77
2021/10/30 06:22:42;;;;;;;4.72;3.65;;;;;18.00;100572.00;;;;5087050;28;20087;-77
2021/10/30 06:25:14;;;;;;;5.95;3.90;;;;;17.80;100589.00;;;;5086947;28;20070;-77
2021/10/30 06:27:44;;;;;;;5.13;3.85;;;;;17.70;100591.00;;;;5087135;28;20560;-77
2021/10/30 06:30:14;;;;;;;4.93;4.05;;;;;17.70;100599.00;;;;5086856;28;20055;-77
2021/10/30 06:32:43;;;;;;;5.35;3.60;;;;;17.60;100588.00;;;;5086313;28;20101;-78
2021/10/30 06:35:13;;;;;;;6.78;4.20;;;;;17.50;100586.00;;;;5086559;28;20109;-77
2021/10/30 06:37:42;;;;;;;4.78;3.47;;;;;17.40;100606.00;;;;5086877;28;20309;-77
2021/10/30 06:40:13;;;;;;;5.53;4.05;;;;;17.30;100594.00;;;;5086745;28;20040;-77
2021/10/30 06:42:43;;;;;;;6.53;4.10;;;;;17.30;100604.00;;;;5086880;28;20070;-77
2021/10/30 06:45:13;;;;;;;4.95;4.10;;;;;17.20;100580.00;;;;5086782;28;20040;-77
2021/10/30 06:47:42;;;;;;;4.22;3.83;;;;;17.20;100606.00;;;;5087569;28;20066;-77
2021/10/30 06:50:21;;;;;;;6.53;4.50;;;;;17.10;100603.00;;;;5090720;28;20040;-77
2021/10/30 06:52:52;;;;;;;4.50;3.80;;;;;17.10;100598.00;;;;5072649;28;20515;-77
2021/10/30 06:55:23;;;;;;;7.10;4.00;;;;;17.10;100602.00;;;;5090688;28;20075;-77
2021/10/30 06:57:52;;;;;;;4.90;3.90;;;;;17.00;100611.00;;;;5072812;28;20042;-77
2021/10/30 07:00:23;;;;;;;8.25;4.50;;;;;17.00;100610.00;;;;5090643;28;20056;-77
2021/10/30 07:02:53;;;;;;;6.88;3.80;;;;;17.00;100630.00;;;;5090627;28;20132;-77
2021/10/30 07:05:22;;;;;;;4.10;3.50;;;;;16.90;100618.00;;;;5090333;28;20040;-77
2021/10/30 07:07:52;;;;;;;6.68;3.70;;;;;16.90;100615.00;;;;5090067;28;20055;-77
2021/10/30 07:10:21;;;;;;;8.18;4.13;;;;;16.80;100628.00;;;;5090863;28;20040;-77
2021/10/30 07:12:50;;;;;;;6.80;3.95;;;;;16.80;100640.00;;;;5090409;28;20048;-77
2021/10/30 07:15:20;;;;;;;7.53;3.67;;;;;16.80;100636.00;;;;5072363;28;20400;-77
2021/10/30 07:17:50;;;;;;;4.97;3.70;;;;;16.80;100643.00;;;;5090120;28;20055;-77
2021/10/30 07:20:20;;;;;;;6.55;3.88;;;;;16.80;100630.00;;;;5090097;28;20051;-77
2021/10/30 07:22:50;;;;;;;5.95;3.60;;;;;16.80;100635.00;;;;5089539;28;20453;-77
2021/10/30 07:25:22;;;;;;;7.70;3.50;;;;;16.80;100644.00;;;;5090145;28;20044;-77
2021/10/30 07:27:55;;;;;;;10.25;3.70;;;;;16.80;100643.00;;;;5090130;28;20036;-77
2021/10/30 07:30:25;;;;;;;6.55;3.30;;;;;16.80;100661.00;;;;5090450;28;20750;-77
2021/10/30 07:32:55;;;;;;;8.35;3.58;;;;;16.80;100652.00;;;;5089940;28;20483;-77
2021/10/30 07:35:24;;;;;;;5.03;3.35;;;;;16.80;100654.00;;;;5071996;28;20047;-77
2021/10/30 07:37:58;;;;;;;6.60;3.30;;;;;16.80;100646.00;;;;5090327;28;20048;-77
2021/10/30 07:40:29;;;;;;;9.75;3.67;;;;;16.80;100652.00;;;;5089763;28;20047;-78
2021/10/30 07:42:59;;;;;;;;;;;;;16.70;100660.00;;;;5090172;28;20502;-77
2021/10/30 07:45:30;;;;;;;7.60;3.55;;;;;16.70;100657.00;;;;5089959;28;19931;-77
2021/10/30 07:47:59;;;;;;;12.17;3.67;;;;;16.60;100658.00;;;;5089961;28;20052;-77
2021/10/30 07:50:29;;;;;;;18.58;3.92;;;;;16.60;100665.00;;;;5089812;28;20289;-77
2021/10/30 07:53:00;;;;;;;12.70;3.60;;;;;16.70;100668.00;;;;5089551;28;20404;-77
2021/10/30 07:55:30;;;;;;;18.00;3.60;;;;;16.70;100656.00;;;;5089992;28;20089;-77
2021/10/30 07:57:59;;;;;;;9.63;3.35;;;;;16.70;100663.00;;;;5089872;28;20419;-77
2021/10/30 08:00:29;;;;;;;8.57;3.22;;;;;16.70;100654.00;;;;5088678;28;20048;-77
2021/10/30 08:02:58;;;;;;;8.15;2.72;;;;;16.60;100642.00;;;;5089237;28;20056;-77
2021/10/30 08:05:28;;;;;;;8.02;3.10;;;;;16.60;100673.00;;;;5088744;28;20080;-78
2021/10/30 08:07:57;;;;;;;8.70;3.10;;;;;16.60;100668.00;;;;5089067;28;20056;-78
2021/10/30 08:10:27;;;;;;;10.35;3.17;;;;;16.60;100671.00;;;;5089336;28;20048;-78
2021/10/30 08:12:57;;;;;;;7.75;3.00;;;;;16.60;100675.00;;;;5070813;28;20522;-78
2021/10/30 08:15:27;;;;;;;8.23;2.97;;;;;16.60;100668.00;;;;5089501;28;20052;-78
2021/10/30 08:17:56;;;;;;;10.00;3.13;;;;;16.50;100682.00;;;;5089137;28;20040;-77
2021/10/30 08:20:25;;;;;;;6.28;3.08;;;;;16.50;100686.00;;;;5071126;28;20052;-78
2021/10/30 08:22:55;;;;;;;5.88;2.92;;;;;16.50;100693.00;;;;5071411;28;20058;-77
2021/10/30 08:25:25;;;;;;;9.10;2.80;;;;;16.50;100695.00;;;;5088864;28;20036;-78
2021/10/30 08:27:55;;;;;;;5.30;2.60;;;;;16.50;100691.00;;;;5089466;28;20097;-78
2021/10/30 08:30:25;;;;;;;6.55;2.42;;;;;16.50;100695.00;;;;5089041;28;20062;-77
2021/10/30 08:32:55;;;;;;;9.32;2.58;;;;;16.50;100709.00;;;;5088707;28;20483;-77
2021/10/30 08:35:25;;;;;;;9.40;2.43;;;;;16.50;100711.00;;;;5088769;28;20051;-77
2021/10/30 08:37:54;;;;;;;6.95;2.50;;;;;16.60;100710.00;;;;5088736;28;20047;-77
2021/10/30 08:40:24;;;;;;;7.38;2.50;;;;;16.60;100727.00;;;;5088946;28;20126;-78
2021/10/30 08:43:20;;;;;;;5.75;2.47;;;;;16.50;100734.00;;;;5088523;28;20508;-77
2021/10/30 08:45:50;;;;;;;4.90;2.38;;;;;16.50;100736.00;;;;5070062;28;20047;-78
2021/10/30 08:48:22;;;;;;;8.45;2.47;;;;;16.60;100736.00;;;;5088621;28;20055;-78
2021/10/30 08:50:53;;;;;;;5.45;2.40;;;;;16.60;100727.00;;;;5088322;28;20396;-78
2021/10/30 08:53:25;;;;;;;10.75;2.85;;;;;16.60;100738.00;;;;5088496;28;20503;-78
2021/10/30 08:55:57;;;;;;;11.10;2.67;;;;;16.70;100736.00;;;;5088505;28;20126;-77
2021/10/30 08:58:27;;;;;;;10.93;2.85;;;;;16.80;100734.00;;;;5088052;28;20043;-77
2021/10/30 09:00:59;;;;;;;10.50;2.75;;;;;16.80;100720.00;;;;5069838;28;20048;-77
2021/10/30 09:03:31;;;;;;;7.28;2.40;;;;;16.90;100721.00;;;;5087902;28;20044;-77
2021/10/30 09:06:01;;;;;;;9.20;2.20;;;;;17.00;100736.00;;;;5088515;28;20040;-78
2021/10/30 09:08:31;;;;;;;9.40;2.40;;;;;17.00;100723.00;;;;5086994;28;20077;-78
2021/10/30 09:11:09;;;;;;;10.40;2.33;;;;;17.10;100721.00;;;;5086610;28;20051;-76
2021/10/30 09:13:39;;;;;;;8.27;2.03;;;;;17.30;100728.00;;;;5087668;28;20051;-78
2021/10/30 09:16:14;;;;;;;11.00;2.53;;;;;17.70;100718.00;;;;5088352;28;20514;-78
2021/10/30 09:18:43;;;;;;;9.30;2.60;;;;;17.90;100728.00;;;;5087801;28;20053;-78
2021/10/30 09:21:15;;;;;;;6.05;2.00;;;;;18.10;100732.00;;;;5087152;28;20044;-77
2021/10/30 09:23:53;;;;;;;5.03;1.65;;;;;18.10;100726.00;;;;5087447;28;20434;-77
2021/10/30 09:26:31;;;;;;;14.35;2.70;;;;;18.30;100719.00;;;;5070386;28;20097;-77
2021/10/30 09:29:13;;;;;;;4.40;1.85;;;;;18.40;100731.00;;;;5087968;28;20048;-77
2021/10/30 09:31:43;;;;;;;6.07;1.80;;;;;18.70;100731.00;;;;5087174;28;20597;-78
2021/10/30 09:34:28;;;;;;;7.13;1.50;;;;;18.70;100742.00;;;;5087352;28;20419;-77
2021/10/30 09:37:01;;;;;;;4.88;2.20;;;;;18.70;100734.00;;;;5087260;28;20071;-77
2021/10/30 09:39:31;;;;;;;8.65;1.75;;;;;18.90;100733.00;;;;5087735;28;20048;-78
2021/10/30 09:42:01;;;;;;;5.82;1.75;;;;;19.00;100735.00;;;;5087152;28;20039;-77
2021/10/30 09:44:32;;;;;;;4.68;2.22;;;;;19.30;100730.00;;;;5087296;28;20550;-77
2021/10/30 09:47:01;;;;;;;13.68;3.38;;;;;19.50;100738.00;;;;5087308;28;20064;-77
2021/10/30 09:49:36;;;;;;;12.82;2.42;;;;;19.70;100734.00;;;;5087673;28;20055;-77
2021/10/30 09:52:05;;;;;;;16.10;5.53;;;;;20.00;100727.00;;;;5084336;28;20051;-78
2021/10/30 09:54:47;;;;;;;26.48;3.97;;;;;21.40;100646.00;;;;5086307;28;20465;-78
2021/10/30 09:57:31;;;;;;;5.40;1.73;;;;;25.60;100516.00;;;;5086957;28;20490;-78
2021/10/30 10:00:01;;;;;;;8.65;1.80;;;;;26.40;100521.00;;;;5087473;28;20036;-77
2021/10/30 10:02:34;;;;;;;16.45;1.90;;;;;27.90;100506.00;;;;5087878;28;20048;-78
2021/10/30 10:05:04;;;;;;;13.65;2.22;;;;;27.00;100571.00;;;;5086939;28;20560;-76
2021/10/30 10:07:36;;;;;;;17.08;2.13;;;;;28.00;100443.00;;;;5086753;28;20159;-76
2021/10/30 10:10:06;;;;;;;11.95;2.55;;;;;28.90;100451.00;;;;5086999;28;20044;-78
2021/10/30 10:12:36;;;;;;;11.82;2.65;;;;;29.50;100454.00;;;;5086943;28;20384;-77
2021/10/30 10:15:06;;;;;;;11.13;1.52;;;;;30.30;100457.00;;;;5092372;28;20052;-76
2021/10/30 10:17:36;;;;;;;8.55;1.58;;;;;30.50;100474.00;;;;5094636;28;20524;-76
2021/10/30 10:20:08;;;;;;;11.25;1.65;;;;;29.70;100543.00;;;;5095342;28;20043;-77
2021/10/30 10:22:40;;;;;;;4.70;1.25;;;;;30.80;100484.00;;;;5100669;28;20039;-76
2021/10/30 10:25:50;;;;;;;13.77;1.60;;;;;32.90;100518.00;;;;5096376;28;20040;-77
2021/10/30 10:28:32;;;;;;;5.03;1.30;;;;;32.20;100521.00;;;;5053591;28;20056;-76
2021/10/30 10:31:05;;;;;;;13.82;1.60;;;;;32.60;100513.00;;;;5086144;28;20072;-77
2021/10/30 10:33:34;;;;;;;12.52;1.48;;;;;32.20;100506.00;;;;5086843;28;20048;-77
2021/10/30 10:36:23;;;;;;;13.98;2.17;;;;;32.80;100502.00;;;;5086615;28;20063;-78
2021/10/30 10:38:59;;;;;;;10.88;1.38;;;;;33.10;100501.00;;;;5086406;28;20044;-77
2021/10/30 10:41:38;;;;;;;4.35;1.00;;;;;33.60;100511.00;;;;5086644;28;20123;-77
2021/10/30 10:44:35;;;;;;;4.28;0.93;;;;;32.60;100517.00;;;;5086637;28;20388;-77
2021/10/30 10:47:05;;;;;;;4.30;1.17;;;;;33.00;100513.00;;;;5085651;28;20411;-77
2021/10/30 10:52:26;;;;;;;6.93;1.10;;;;;33.30;100499.00;;;;5087031;28;20043;-77
2021/10/30 10:54:56;;;;;;;6.63;1.20;;;;;32.20;100513.00;;;;5086345;28;20411;-79
2021/10/30 10:57:29;;;;;;;7.68;1.38;;;;;32.30;100519.00;;;;5086625;28;20040;-78
2021/10/30 11:00:12;;;;;;;9.15;1.40;;;;;32.60;100504.00;;;;5086418;28;20056;-77
2021/10/30 11:02:49;;;;;;;6.07;1.20;;;;;31.80;100503.00;;;;5086420;28;20511;-78
2021/10/30 11:05:20;;;;;;;4.03;1.05;;;;;32.40;100499.00;;;;5086611;28;20046;-77
2021/10/30 11:08:10;;;;;;;1.83;1.00;;;;;31.80;100492.00;;;;5085984;28;20044;-77
2021/10/30 11:10:45;;;;;;;14.73;1.35;;;;;32.10;100513.00;;;;5086748;28;20044;-77
2021/10/30 11:13:21;;;;;;;5.18;1.30;;;;;32.70;100558.00;;;;5086251;28;20071;-78
2021/10/30 11:15:53;;;;;;;5.55;1.20;;;;;32.80;100559.00;;;;5087357;28;20044;-76
2021/10/30 11:18:28;;;;;;;8.30;1.25;;;;;32.10;100561.00;;;;5086041;28;20559;-77
2021/10/30 11:21:19;;;;;;;4.32;1.30;;;;;32.60;100600.00;;;;5086724;28;20040;-77
2021/10/30 11:23:56;;;;;;;9.07;1.33;;;;;32.10;100552.00;;;;5086486;28;20043;-77
2021/10/30 11:26:31;;;;;;;5.22;1.50;;;;;31.70;100546.00;;;;5086377;28;20040;-78
2021/10/30 11:29:07;;;;;;;4.45;1.38;;;;;31.60;100557.00;;;;5051356;28;20426;-77
2021/10/30 11:31:38;;;;;;;6.55;1.27;;;;;30.80;100561.00;;;;5086923;28;20402;-78
2021/10/30 11:34:11;;;;;;;;;;;;;32.10;100571.00;;;;5087203;28;20510;-77
2021/10/30 11:36:42;;;;;;;4.57;1.60;;;;;30.30;100575.00;;;;5090330;28;19951;-78
2021/10/30 11:39:13;;;;;;;9.07;1.90;;;;;29.70;100587.00;;;;5089715;28;20044;-77
2021/10/30 11:41:44;;;;;;;7.10;1.48;;;;;29.20;100623.00;;;;5071989;28;20119;-80
2021/10/30 11:44:15;;;;;;;;;;;;;30.40;100729.00;;;;5089844;28;20044;-77
2021/10/30 11:46:53;;;;;;;8.48;1.55;;;;;29.60;100726.00;;;;5089951;28;19935;-77
2021/10/30 11:49:25;;;;;;;13.38;1.88;;;;;29.30;100735.00;;;;5070675;28;20597;-77
2021/10/30 11:52:07;;;;;;;9.60;1.90;;;;;29.10;100759.00;;;;5089322;28;20036;-78
2021/10/30 11:54:39;;;;;;;19.77;1.92;;;;;29.40;100743.00;;;;5089088;28;20510;-77
2021/10/30 11:57:11;;;;;;;7.35;1.52;;;;;29.50;100748.00;;;;5089327;28;20102;-77
2021/10/30 11:59:44;;;;;;;6.32;1.30;;;;;29.00;100751.00;;;;5088858;28;20044;-77
2021/10/30 12:02:16;;;;;;;13.65;1.75;;;;;29.20;100739.00;;;;5089521;28;20163;-77
2021/10/30 12:04:45;;;;;;;7.97;1.90;;;;;29.20;100742.00;;;;5090025;28;20036;-77
2021/10/30 12:07:15;;;;;;;4.72;1.70;;;;;28.90;100735.00;;;;5089152;28;20403;-78
2021/10/30 12:09:47;;;;;;;2.87;1.70;;;;;28.50;100731.00;;;;5071235;28;20392;-79
2021/10/30 12:12:21;;;;;;;5.82;1.60;;;;;28.70;100738.00;;;;5088935;28;20040;-76
2021/10/30 12:14:56;;;;;;;2.50;1.20;;;;;28.50;100732.00;;;;5089122;28;20054;-77
2021/10/30 12:17:35;;;;;;;7.25;1.60;;;;;28.60;100724.00;;;;5089214;28;20047;-78
2021/10/30 12:20:10;;;;;;;5.15;1.40;;;;;28.90;100731.00;;;;5089205;28;20048;-75
2021/10/30 12:22:43;;;;;;;7.70;1.40;;;;;28.60;100725.00;;;;5088719;28;20408;-78
2021/10/30 12:25:30;;;;;;;5.95;1.60;;;;;28.60;100723.00;;;;5088619;28;20044;-76
2021/10/30 12:28:00;;;;;;;4.15;1.67;;;;;29.20;100720.00;;;;5089626;28;20040;-78
2021/10/30 12:30:33;;;;;;;11.55;1.77;;;;;29.20;100732.00;;;;5088694;28;20051;-79
2021/10/30 12:33:13;;;;;;;5.38;1.70;;;;;29.30;100734.00;;;;5088613;28;20072;-77